createdAt,value
2023-03-08T00:03:58.378Z,44644.66
2023-03-08T00:09:03.832Z,44642.66
2023-03-08T00:14:08.123Z,44640.69
2023-03-08T00:19:14.264Z,44586.78
2023-03-08T00:24:20.144Z,44600.75
2023-03-08T00:29:24.626Z,44588.78
2023-03-08T00:34:30.366Z,44580.78
2023-03-08T00:39:35.087Z,44622.72
2023-03-08T00:44:41.450Z,44604.75
2023-03-08T00:49:47.039Z,44592.75
2023-03-08T00:54:51.792Z,44642.66
2023-03-08T00:59:56.192Z,44650.66
2023-03-08T01:05:03.226Z,44630.69
2023-03-08T01:10:08.943Z,44654.66
2023-03-08T01:15:14.991Z,44714.53
2023-03-08T01:20:21.778Z,44768.44
2023-03-08T01:25:26.037Z,44820.34
2023-03-08T01:30:30.406Z,44804.38
2023-03-08T01:35:36.106Z,44856.28
2023-03-08T01:40:40.255Z,44850.28
2023-03-08T01:46:05.598Z,44860.28
2023-03-08T01:51:15.444Z,44864.25
2023-03-08T01:56:21.067Z,44808.38
2023-03-08T02:01:25.894Z,44828.31
2023-03-08T02:06:35.122Z,44846.28
2023-03-08T02:11:41.906Z,44876.25
2023-03-08T02:16:46.580Z,44828.31
2023-03-08T02:21:52.233Z,44898.19
2023-03-08T02:27:03.603Z,44892.22
2023-03-08T02:32:08.334Z,44892.22
2023-03-08T02:37:16.162Z,44894.22
2023-03-08T02:42:21.931Z,44874.25
2023-03-08T02:47:26.144Z,44862.25
2023-03-08T02:52:30.655Z,44822.34
2023-03-08T02:57:36.419Z,44812.34
2023-03-08T03:02:42.649Z,44792.41
2023-03-08T03:07:47.292Z,44762.44
2023-03-08T03:12:57.381Z,44804.38
2023-03-08T03:18:11.024Z,44794.38
2023-03-08T03:23:15.624Z,44816.34
2023-03-08T03:28:30.453Z,44858.28
2023-03-08T03:33:36.214Z,44864.25
2023-03-08T03:38:42.511Z,44876.25
2023-03-08T03:43:50.758Z,44900.19
2023-03-08T03:55:44.122Z,44912.19
2023-03-08T04:00:50.442Z,44982.06
2023-03-08T04:06:09.569Z,45019.97
2023-03-08T04:11:16.802Z,45041.94
2023-03-08T04:16:24.213Z,45091.84
2023-03-08T04:27:17.292Z,45095.84
2023-03-08T04:32:23.132Z,45099.84
2023-03-08T04:43:15.827Z,45163.72
2023-03-08T04:48:22.214Z,45175.72
2023-03-08T04:53:55.636Z,45203.66
2023-03-08T05:05:17.135Z,45237.59
2023-03-08T05:10:22.615Z,45245.59
2023-03-08T05:16:01.529Z,45273.53
2023-03-08T05:26:51.782Z,45291.50
2023-03-08T05:31:59.067Z,45275.53
2023-03-08T05:37:03.740Z,45285.50
2023-03-08T05:42:13.429Z,45273.53
2023-03-08T05:47:21.364Z,45271.53
2023-03-08T05:52:25.616Z,45303.47
2023-03-08T06:03:17.030Z,45305.47
2023-03-08T06:08:22.931Z,45335.44
2023-03-08T06:13:28.069Z,45357.41
2023-03-08T06:18:34.917Z,45341.41
2023-03-08T06:23:41.369Z,45321.44
2023-03-08T06:34:34.132Z,45337.44
2023-03-08T06:39:39.105Z,45369.38
2023-03-08T06:44:50.617Z,45307.47
2023-03-08T06:50:00.204Z,45255.56
2023-03-08T06:55:05.297Z,45365.38
2023-03-08T07:00:12.501Z,45419.28
2023-03-08T07:05:22.177Z,45395.31
2023-03-08T07:16:14.174Z,45413.31
2023-03-08T07:21:20.273Z,45271.53
2023-03-08T07:32:41.201Z,45211.66
2023-03-08T07:37:49.552Z,45109.81
2023-03-08T07:43:07.219Z,45209.66
2023-03-08T07:48:36.672Z,45273.53
2023-03-08T07:53:43.658Z,45349.41
2023-03-08T07:58:48.071Z,45347.41
2023-03-08T08:09:18.464Z,45217.63
2023-03-08T08:19:59.978Z,45205.66
2023-03-08T08:25:06.218Z,45195.66
2023-03-08T08:35:57.877Z,45291.50
2023-03-08T08:41:03.333Z,45409.31
2023-03-08T08:46:40.202Z,45495.16
2023-03-08T08:51:46.495Z,45431.28
2023-03-08T08:56:51.147Z,45475.19
2023-03-08T09:01:56.715Z,45449.25
2023-03-08T09:07:03.091Z,45467.22
2023-03-08T09:12:09.332Z,45463.22
2023-03-08T09:17:13.797Z,45427.28
2023-03-08T09:22:19.808Z,45409.31
2023-03-08T09:27:23.981Z,45479.19
2023-03-08T09:32:28.319Z,45481.19
2023-03-08T09:37:34.342Z,45451.22
2023-03-08T09:42:39.647Z,45487.19
2023-03-08T09:47:50.178Z,45443.25
2023-03-08T09:53:00.537Z,45471.19
2023-03-08T09:58:15.124Z,45459.22
2023-03-08T10:03:41.369Z,45593.00
2023-03-08T10:08:54.572Z,45509.13
2023-03-08T10:14:01.808Z,45519.13
2023-03-08T10:19:15.018Z,45477.19
2023-03-08T10:24:27.321Z,45539.09
2023-03-08T10:29:31.600Z,45461.22
2023-03-08T10:34:37.631Z,45411.31
2023-03-08T10:39:53.530Z,45479.19
2023-03-08T10:45:00.758Z,45620.94
2023-03-08T10:50:08.203Z,45606.97
2023-03-08T10:55:16.159Z,45469.22
2023-03-08T11:00:32.386Z,45565.03
2023-03-08T11:05:36.886Z,45654.91
2023-03-08T11:10:42.986Z,45722.78
2023-03-08T11:15:53.202Z,45854.59
2023-03-08T11:21:03.454Z,45846.59
2023-03-08T11:26:21.195Z,45876.53
2023-03-08T11:31:34.586Z,45888.53
2023-03-08T11:36:45.398Z,45908.50
2023-03-08T11:41:58.925Z,45962.41
2023-03-08T11:47:33.345Z,45902.50
2023-03-08T11:52:51.947Z,45892.53
2023-03-08T11:58:03.095Z,45908.50
2023-03-08T12:03:14.944Z,45778.69
2023-03-08T12:08:25.897Z,45778.69
2023-03-08T12:13:35.572Z,45760.72
2023-03-08T12:18:46.813Z,45858.56
2023-03-08T12:24:02.172Z,45808.66
2023-03-08T12:29:17.771Z,45832.63
2023-03-08T12:34:29.435Z,45900.50
2023-03-08T12:39:35.833Z,45908.50
2023-03-08T12:44:41.640Z,45916.47
2023-03-08T12:49:48.952Z,45928.47
2023-03-08T12:54:59.428Z,45962.41
2023-03-08T13:00:10.944Z,46006.34
2023-03-08T13:05:21.931Z,46042.28
2023-03-08T13:10:33.368Z,46084.22
2023-03-08T13:15:40.263Z,46046.28
2023-03-08T13:20:57.878Z,46032.31
2023-03-08T13:26:16.080Z,45986.38
2023-03-08T13:31:24.516Z,46010.34
2023-03-08T13:36:30.285Z,46026.31
2023-03-08T13:41:36.845Z,45982.38
2023-03-08T13:46:43.315Z,46010.34
2023-03-08T13:51:51.268Z,46032.31
2023-03-08T13:56:57.037Z,46082.22
2023-03-08T14:02:02.825Z,46078.22
2023-03-08T14:07:22.603Z,46108.19
2023-03-08T14:12:31.518Z,46074.25
2023-03-08T14:17:37.899Z,46084.22
2023-03-08T14:22:47.415Z,46138.16
2023-03-08T14:27:51.730Z,46146.13
2023-03-08T14:33:02.065Z,46124.16
2023-03-08T14:38:15.629Z,46102.19
2023-03-08T14:43:23.257Z,46132.16
2023-03-08T14:48:31.808Z,46138.16
2023-03-08T14:53:38.938Z,46142.13
2023-03-08T14:58:46.503Z,46178.09
2023-03-08T15:03:52.603Z,46098.19
2023-03-08T15:08:57.811Z,46102.19
2023-03-08T15:14:02.978Z,46056.28
2023-03-08T15:19:09.039Z,45998.34
2023-03-08T15:24:17.704Z,45946.44
2023-03-08T15:29:28.042Z,45896.50
2023-03-08T15:34:34.066Z,45722.78
2023-03-08T15:39:38.278Z,45281.53
2023-03-08T15:44:42.648Z,45295.50
2023-03-08T15:49:51.597Z,45235.59
2023-03-08T15:54:57.476Z,45165.72
2023-03-08T16:00:01.907Z,45039.94
2023-03-08T16:05:19.827Z,45229.63
2023-03-08T16:10:24.311Z,45295.50
2023-03-08T16:15:28.934Z,45247.59
2023-03-08T16:20:34.951Z,45027.97
2023-03-08T16:25:39.326Z,45006.00
2023-03-08T16:30:43.429Z,44964.09
2023-03-08T16:35:52.629Z,44820.34
2023-03-08T16:41:11.525Z,44852.28
2023-03-08T16:46:18.412Z,44860.28
2023-03-08T16:51:25.819Z,44728.50
2023-03-08T16:56:31.214Z,44644.66
2023-03-08T17:01:35.589Z,44570.81
2023-03-08T17:06:44.199Z,44706.56
2023-03-08T17:11:48.650Z,44590.78
2023-03-08T17:16:52.827Z,44560.81
2023-03-08T17:21:58.498Z,44401.13
2023-03-08T17:27:03.018Z,44265.41
2023-03-08T17:32:08.470Z,43999.94
2023-03-08T17:37:15.966Z,43738.47
2023-03-08T17:42:20.235Z,43580.81
2023-03-08T17:47:24.629Z,43487.00
2023-03-08T17:52:30.240Z,43351.31
2023-03-08T17:57:36.033Z,43219.59
2023-03-08T18:02:40.481Z,43105.88
2023-03-08T18:07:47.845Z,42954.22
2023-03-08T18:12:52.315Z,42946.22
2023-03-08T18:17:56.503Z,42776.63
2023-03-08T18:23:04.195Z,42738.72
2023-03-08T18:28:08.407Z,42634.97
2023-03-08T18:33:13.418Z,42630.97
2023-03-08T18:38:19.018Z,42465.38
2023-03-08T18:43:23.218Z,42323.72
2023-03-08T18:48:27.614Z,42329.69
2023-03-08T18:53:33.505Z,42249.91
2023-03-08T18:58:38.380Z,42180.06
2023-03-08T19:03:44.030Z,42217.97
2023-03-08T19:08:49.721Z,42325.72
2023-03-08T19:13:54.151Z,42393.53
2023-03-08T19:19:00.480Z,42493.31
2023-03-08T19:24:07.312Z,42423.47
2023-03-08T19:29:14.901Z,42411.50
2023-03-08T19:34:20.875Z,42503.28
2023-03-08T19:39:28.308Z,42559.13
2023-03-08T19:44:33.832Z,42632.97
2023-03-08T19:49:38.867Z,42650.91
2023-03-08T19:54:45.666Z,42724.75
2023-03-08T19:59:49.885Z,42692.81
2023-03-08T20:04:54.251Z,42660.91
2023-03-08T20:10:15.170Z,42730.72
2023-03-08T20:15:20.152Z,42764.66
2023-03-08T20:20:25.296Z,42804.56
2023-03-08T20:25:30.971Z,42824.50
2023-03-08T20:30:35.135Z,42828.50
2023-03-08T20:35:40.056Z,42844.47
2023-03-08T20:40:45.739Z,42878.38
2023-03-08T20:45:49.948Z,42894.34
2023-03-08T20:51:00.224Z,42860.44
2023-03-08T20:56:08.730Z,42842.47
2023-03-08T21:01:13.743Z,42862.41
2023-03-08T21:06:20.499Z,42836.47
2023-03-08T21:11:26.140Z,42918.28
2023-03-08T21:16:31.096Z,42910.31
2023-03-08T21:21:37.728Z,42940.25
2023-03-08T21:26:43.580Z,42952.22
2023-03-08T21:31:49.621Z,42888.38
2023-03-08T21:36:54.373Z,42748.69
2023-03-08T21:42:00.715Z,42615.00
2023-03-08T21:47:05.123Z,42563.13
2023-03-08T21:52:09.313Z,42437.44
2023-03-08T21:57:15.184Z,42214.00
2023-03-08T22:02:19.726Z,41834.94
2023-03-08T22:07:24.053Z,41479.88
2023-03-08T22:12:29.591Z,41455.97
2023-03-08T22:17:34.056Z,41216.59
2023-03-08T22:22:38.654Z,41136.81
2023-03-08T22:27:45.512Z,41035.13
2023-03-08T22:32:49.781Z,40845.66
2023-03-08T22:37:54.430Z,40779.84
2023-03-08T22:42:59.948Z,40714.03
2023-03-08T22:48:04.792Z,40634.25
2023-03-08T22:53:10.113Z,40636.25
2023-03-08T22:58:16.012Z,40604.34
2023-03-08T23:03:20.312Z,40576.41
2023-03-08T23:08:24.591Z,40570.44
2023-03-08T23:13:34.188Z,40526.56
2023-03-08T23:18:39.034Z,40552.50
2023-03-08T23:23:43.942Z,40538.53
2023-03-08T23:28:49.562Z,40534.53
2023-03-08T23:33:54.480Z,40546.50
2023-03-08T23:39:01.952Z,40526.56
2023-03-08T23:44:07.637Z,40514.59
2023-03-08T23:49:12.044Z,40558.47
2023-03-08T23:54:16.306Z,40566.44
2023-03-08T23:59:24.147Z,40530.56
